Sea Breeze — WDJ8450 — position and weather

sailwx.info

Track history (hours):
 
Tides and Currents Weather Stations Pressure Air Temp Water Temp Dewpoint Dewpoint Depression Visibility Wind Speed Wind Dir Waves Ship Positions

Sea Breeze

Owner: Nickodemus, Timothy D, Wake Forest, NC. More information available from US FCC via Universal Licensing System and Coast Guard Vessel Documentation Center.

Last reported at 2018-Jan-12 14:59 UTC. Time now 2018-Jan-21 12:46 UTC.
Position N 29°56' W 093°08'.
Warning: this ship's position is 8 days out of date.

Length 97 m; draft 3 m.

Type: . MMSI: 367005220.

Date/timePositionNaut miles runAvg speedWind from/ knotsBaromVisibWave heightAir tempDewpointWater temp
2018-Jan-12 14:59N 29°56' W 093°08'2 4.0
2018-Jan-12 14:30N 29°56' W 093°05'40 3.7
2018-Jan-12 03:42N 29°51' W 092°20'1 3.2
2018-Jan-12 03:30N 29°50' W 092°20'2 3.1
2018-Jan-12 03:00N 29°50' W 092°18'2 4.0
2018-Jan-12 02:30N 29°49' W 092°16'2 3.7
2018-Jan-12 02:00N 29°48' W 092°14'2 3.5
2018-Jan-12 01:30N 29°47' W 092°12'1 2.2
2018-Jan-12 01:00N 29°47' W 092°11'0 0.7
2018-Jan-12 00:30N 29°47' W 092°11'0 0.7
2018-Jan-12 00:00N 29°46' W 092°10'0 0.7
2018-Jan-11 23:30N 29°47' W 092°11'1 1.5
2018-Jan-11 23:00N 29°47' W 092°12'1 1.7
2018-Jan-11 22:30N 29°47' W 092°12'1 1.6
2018-Jan-11 22:00N 29°48' W 092°13'2 3.8
2018-Jan-11 21:30N 29°48' W 092°15'2 4.5
2018-Jan-11 20:59N 29°50' W 092°18'41 1.8
2018-Jan-10 21:55N 29°56' W 093°04'2 4.3
2018-Jan-10 21:28N 29°56' W 093°06'2 4.4
2018-Jan-10 21:00N 29°56' W 093°09'2 4.2
2018-Jan-10 20:30N 29°57' W 093°11'2 4.3
2018-Jan-10 20:00N 29°59' W 093°12'2 4.2
2018-Jan-10 19:31N 30°01' W 093°14'2 3.9
2018-Jan-10 19:00N 30°02' W 093°15'2 4.0
2018-Jan-10 18:30N 30°04' W 093°16'2 4.0
2018-Jan-10 18:00N 30°05' W 093°18'1 1.5
2018-Jan-10 17:30N 30°06' W 093°18'0 0.0
2018-Jan-10 17:00N 30°06' W 093°18'0 0.0
2018-Jan-10 16:30N 30°06' W 093°18'0 0.0
2018-Jan-10 16:00N 30°06' W 093°18'0 0.0
2018-Jan-10 15:30N 30°06' W 093°18'0 0.0
2018-Jan-10 15:00N 30°06' W 093°18'1 1.6
2018-Jan-10 14:30N 30°06' W 093°19'2 4.8
2018-Jan-10 14:00N 30°04' W 093°21'2 4.7
2018-Jan-10 13:30N 30°04' W 093°23'2 4.6
2018-Jan-10 13:00N 30°04' W 093°26'2 4.9
2018-Jan-10 12:30N 30°04' W 093°29'2 4.9
2018-Jan-10 12:00N 30°04' W 093°32'2 4.7
2018-Jan-10 11:29N 30°04' W 093°35'3 4.9
2018-Jan-10 10:58N 30°04' W 093°38'73 3.6
2018-Jan-09 14:32N 29°30' W 094°52'0 6.7
2018-Jan-09 14:30N 29°30' W 094°52'3 6.2
2018-Jan-09 13:59N 29°33' W 094°54'3 6.0
2018-Jan-09 13:30N 29°35' W 094°56'3 6.0
2018-Jan-09 13:00N 29°38' W 094°58'3 6.3
2018-Jan-09 12:30N 29°41' W 094°59'9 0.3
2018-Jan-08 06:54N 29°46' W 095°07'0 0.0
2018-Jan-08 06:30N 29°46' W 095°07'0 0.0
2018-Jan-08 04:48N 29°46' W 095°07'0 0.0
2018-Jan-08 03:09N 29°46' W 095°07'0 0.0
2018-Jan-08 02:51N 29°46' W 095°07'0 0.0
2018-Jan-08 02:28N 29°46' W 095°07'0 0.0
2018-Jan-08 02:00N 29°46' W 095°07'1 0.4
2018-Jan-07 22:20N 29°46' W 095°06'1 0.1
2018-Jan-07 08:44N 29°46' W 095°04'0 0.0
2018-Jan-07 04:33N 29°46' W 095°04'0 0.0
2018-Jan-07 04:12N 29°46' W 095°04'0 0.4
2018-Jan-07 03:56N 29°46' W 095°04'0 0.0
2018-Jan-07 03:20N 29°46' W 095°04'1 0.1
2018-Jan-06 11:28N 29°45' W 095°06'0 0.0
2018-Jan-06 07:40N 29°46' W 095°06'0 0.5
2018-Jan-06 07:25N 29°45' W 095°06'0 0.8
2018-Jan-06 07:01N 29°46' W 095°05'2 0.1
2018-Jan-05 14:38N 29°45' W 095°04'3 6.2
2018-Jan-05 14:11N 29°43' W 095°01'1 6.0
2018-Jan-05 13:59N 29°42' W 095°00'3 6.8
2018-Jan-05 13:31N 29°39' W 094°58'4 7.3
2018-Jan-05 13:01N 29°36' W 094°57'4 7.4
2018-Jan-05 12:31N 29°33' W 094°54'2 0.2
2018-Jan-05 02:22N 29°31' W 094°53'2 6.0
2018-Jan-05 02:00N 29°33' W 094°55'3 6.7
2018-Jan-05 01:31N 29°36' W 094°57'4 7.1
2018-Jan-05 01:00N 29°39' W 094°58'3 6.7
2018-Jan-05 00:30N 29°42' W 095°00'3 6.0
2018-Jan-05 00:00N 29°44' W 095°03'3 0.2
2018-Jan-04 05:58N 29°46' W 095°05'5 0.2
2018-Jan-03 11:38N 29°43' W 095°01'1 5.3
2018-Jan-03 11:29N 29°42' W 095°01'2 1.6
2018-Jan-03 10:21N 29°43' W 095°03'0 0.0
2018-Jan-03 02:32N 29°43' W 095°03'0 0.0
2018-Jan-03 02:30N 29°43' W 095°03'0 0.0
2018-Jan-02 15:04N 29°43' W 095°03'  
Track history (hours):
 
Tides and Currents Weather Stations Pressure Air Temp Water Temp Dewpoint Dewpoint Depression Visibility Wind Speed Wind Dir Waves Ship Positions

Sea Breeze

Owner: Nickodemus, Timothy D, Wake Forest, NC. More information available from US FCC via Universal Licensing System and Coast Guard Vessel Documentation Center.

Last reported at 2018-Jan-12 14:59 UTC. Time now 2018-Jan-21 12:46 UTC.
Position N 29°56' W 093°08'.
Warning: this ship's position is 8 days out of date.

Length 97 m; draft 3 m.

Type: . MMSI: 367005220.

Date/timePositionNaut miles runAvg speedWind from/ knotsBaromVisibWave heightAir tempDewpointWater temp
2018-Jan-12 14:59N 29°56' W 093°08'2 4.0
2018-Jan-12 14:30N 29°56' W 093°05'40 3.7
2018-Jan-12 03:42N 29°51' W 092°20'1 3.2
2018-Jan-12 03:30N 29°50' W 092°20'2 3.1
2018-Jan-12 03:00N 29°50' W 092°18'2 4.0
2018-Jan-12 02:30N 29°49' W 092°16'2 3.7
2018-Jan-12 02:00N 29°48' W 092°14'2 3.5
2018-Jan-12 01:30N 29°47' W 092°12'1 2.2
2018-Jan-12 01:00N 29°47' W 092°11'0 0.7
2018-Jan-12 00:30N 29°47' W 092°11'0 0.7
2018-Jan-12 00:00N 29°46' W 092°10'0 0.7
2018-Jan-11 23:30N 29°47' W 092°11'1 1.5
2018-Jan-11 23:00N 29°47' W 092°12'1 1.7
2018-Jan-11 22:30N 29°47' W 092°12'1 1.6
2018-Jan-11 22:00N 29°48' W 092°13'2 3.8
2018-Jan-11 21:30N 29°48' W 092°15'2 4.5
2018-Jan-11 20:59N 29°50' W 092°18'41 1.8
2018-Jan-10 21:55N 29°56' W 093°04'2 4.3
2018-Jan-10 21:28N 29°56' W 093°06'2 4.4
2018-Jan-10 21:00N 29°56' W 093°09'2 4.2
2018-Jan-10 20:30N 29°57' W 093°11'2 4.3
2018-Jan-10 20:00N 29°59' W 093°12'2 4.2
2018-Jan-10 19:31N 30°01' W 093°14'2 3.9
2018-Jan-10 19:00N 30°02' W 093°15'2 4.0
2018-Jan-10 18:30N 30°04' W 093°16'2 4.0
2018-Jan-10 18:00N 30°05' W 093°18'1 1.5
2018-Jan-10 17:30N 30°06' W 093°18'0 0.0
2018-Jan-10 17:00N 30°06' W 093°18'0 0.0
2018-Jan-10 16:30N 30°06' W 093°18'0 0.0
2018-Jan-10 16:00N 30°06' W 093°18'0 0.0
2018-Jan-10 15:30N 30°06' W 093°18'0 0.0
2018-Jan-10 15:00N 30°06' W 093°18'1 1.6
2018-Jan-10 14:30N 30°06' W 093°19'2 4.8
2018-Jan-10 14:00N 30°04' W 093°21'2 4.7
2018-Jan-10 13:30N 30°04' W 093°23'2 4.6
2018-Jan-10 13:00N 30°04' W 093°26'2 4.9
2018-Jan-10 12:30N 30°04' W 093°29'2 4.9
2018-Jan-10 12:00N 30°04' W 093°32'2 4.7
2018-Jan-10 11:29N 30°04' W 093°35'3 4.9
2018-Jan-10 10:58N 30°04' W 093°38'73 3.6
2018-Jan-09 14:32N 29°30' W 094°52'0 6.7
2018-Jan-09 14:30N 29°30' W 094°52'3 6.2
2018-Jan-09 13:59N 29°33' W 094°54'3 6.0
2018-Jan-09 13:30N 29°35' W 094°56'3 6.0
2018-Jan-09 13:00N 29°38' W 094°58'3 6.3
2018-Jan-09 12:30N 29°41' W 094°59'9 0.3
2018-Jan-08 06:54N 29°46' W 095°07'0 0.0
2018-Jan-08 06:30N 29°46' W 095°07'0 0.0
2018-Jan-08 04:48N 29°46' W 095°07'0 0.0
2018-Jan-08 03:09N 29°46' W 095°07'0 0.0
2018-Jan-08 02:51N 29°46' W 095°07'0 0.0
2018-Jan-08 02:28N 29°46' W 095°07'0 0.0
2018-Jan-08 02:00N 29°46' W 095°07'1 0.4
2018-Jan-07 22:20N 29°46' W 095°06'1 0.1
2018-Jan-07 08:44N 29°46' W 095°04'0 0.0
2018-Jan-07 04:33N 29°46' W 095°04'0 0.0
2018-Jan-07 04:12N 29°46' W 095°04'0 0.4
2018-Jan-07 03:56N 29°46' W 095°04'0 0.0
2018-Jan-07 03:20N 29°46' W 095°04'1 0.1
2018-Jan-06 11:28N 29°45' W 095°06'0 0.0
2018-Jan-06 07:40N 29°46' W 095°06'0 0.5
2018-Jan-06 07:25N 29°45' W 095°06'0 0.8
2018-Jan-06 07:01N 29°46' W 095°05'2 0.1
2018-Jan-05 14:38N 29°45' W 095°04'3 6.2
2018-Jan-05 14:11N 29°43' W 095°01'1 6.0
2018-Jan-05 13:59N 29°42' W 095°00'3 6.8
2018-Jan-05 13:31N 29°39' W 094°58'4 7.3
2018-Jan-05 13:01N 29°36' W 094°57'4 7.4
2018-Jan-05 12:31N 29°33' W 094°54'2 0.2
2018-Jan-05 02:22N 29°31' W 094°53'2 6.0
2018-Jan-05 02:00N 29°33' W 094°55'3 6.7
2018-Jan-05 01:31N 29°36' W 094°57'4 7.1
2018-Jan-05 01:00N 29°39' W 094°58'3 6.7
2018-Jan-05 00:30N 29°42' W 095°00'3 6.0
2018-Jan-05 00:00N 29°44' W 095°03'3 0.2
2018-Jan-04 05:58N 29°46' W 095°05'5 0.2
2018-Jan-03 11:38N 29°43' W 095°01'1 5.3
2018-Jan-03 11:29N 29°42' W 095°01'2 1.6
2018-Jan-03 10:21N 29°43' W 095°03'0 0.0
2018-Jan-03 02:32N 29°43' W 095°03'0 0.0
2018-Jan-03 02:30N 29°43' W 095°03'0 0.0
2018-Jan-02 15:04N 29°43' W 095°03'  

Dump ship's entire track history